sensor_id;sensor_type;location;lat;lon;timestamp;temperature;humidity
39847;DHT22;25517;52.422;10.782;2023-07-30T00:01:51;17.10;99.90
39847;DHT22;25517;52.422;10.782;2023-07-30T00:04:16;17.00;99.90
39847;DHT22;25517;52.422;10.782;2023-07-30T00:06:42;17.10;99.90
39847;DHT22;25517;52.422;10.782;2023-07-30T00:09:07;17.00;99.90
39847;DHT22;25517;52.422;10.782;2023-07-30T00:11:33;17.10;99.90
39847;DHT22;25517;52.422;10.782;2023-07-30T00:13:58;17.10;99.90
39847;DHT22;25517;52.422;10.782;2023-07-30T00:16:26;17.10;99.90
39847;DHT22;25517;52.422;10.782;2023-07-30T00:18:51;17.10;99.90
39847;DHT22;25517;52.422;10.782;2023-07-30T00:21:17;17.10;99.90
39847;DHT22;25517;52.422;10.782;2023-07-30T00:23:42;17.10;99.90
39847;DHT22;25517;52.422;10.782;2023-07-30T00:26:08;17.10;99.90
39847;DHT22;25517;52.422;10.782;2023-07-30T00:28:33;17.20;99.90
39847;DHT22;25517;52.422;10.782;2023-07-30T00:30:59;17.20;99.90
39847;DHT22;25517;52.422;10.782;2023-07-30T00:33:24;17.10;99.90
39847;DHT22;25517;52.422;10.782;2023-07-30T00:35:53;17.20;99.90
39847;DHT22;25517;52.422;10.782;2023-07-30T00:38:19;17.20;99.90
39847;DHT22;25517;52.422;10.782;2023-07-30T00:40:45;17.20;99.90
39847;DHT22;25517;52.422;10.782;2023-07-30T00:43:10;17.30;99.90
39847;DHT22;25517;52.422;10.782;2023-07-30T00:45:36;17.30;99.90
39847;DHT22;25517;52.422;10.782;2023-07-30T00:48:03;17.30;99.90
39847;DHT22;25517;52.422;10.782;2023-07-30T00:50:29;17.40;99.90
39847;DHT22;25517;52.422;10.782;2023-07-30T00:52:55;17.30;99.90
39847;DHT22;25517;52.422;10.782;2023-07-30T00:55:21;17.40;99.90
39847;DHT22;25517;52.422;10.782;2023-07-30T00:57:48;17.30;99.90
39847;DHT22;25517;52.422;10.782;2023-07-30T01:00:13;17.30;99.90
39847;DHT22;25517;52.422;10.782;2023-07-30T01:02:39;17.30;99.90
39847;DHT22;25517;52.422;10.782;2023-07-30T01:05:05;17.30;99.90
39847;DHT22;25517;52.422;10.782;2023-07-30T01:07:31;17.30;99.90
39847;DHT22;25517;52.422;10.782;2023-07-30T01:09:57;17.20;99.90
39847;DHT22;25517;52.422;10.782;2023-07-30T01:12:23;17.20;99.90
39847;DHT22;25517;52.422;10.782;2023-07-30T01:14:49;17.20;99.90
39847;DHT22;25517;52.422;10.782;2023-07-30T01:17:16;17.20;99.90
39847;DHT22;25517;52.422;10.782;2023-07-30T01:19:41;17.20;99.90
39847;DHT22;25517;52.422;10.782;2023-07-30T01:22:07;17.20;99.90
39847;DHT22;25517;52.422;10.782;2023-07-30T01:24:32;17.20;99.90
39847;DHT22;25517;52.422;10.782;2023-07-30T01:27:04;17.20;99.90
39847;DHT22;25517;52.422;10.782;2023-07-30T01:29:41;17.20;99.90
39847;DHT22;25517;52.422;10.782;2023-07-30T01:32:08;17.20;99.90
39847;DHT22;25517;52.422;10.782;2023-07-30T01:34:37;17.20;99.90
39847;DHT22;25517;52.422;10.782;2023-07-30T01:37:05;17.20;99.90
39847;DHT22;25517;52.422;10.782;2023-07-30T01:39:32;17.20;99.90
39847;DHT22;25517;52.422;10.782;2023-07-30T01:41:58;17.20;99.90
39847;DHT22;25517;52.422;10.782;2023-07-30T01:44:23;17.20;99.90
39847;DHT22;25517;52.422;10.782;2023-07-30T01:46:49;17.10;99.90
39847;DHT22;25517;52.422;10.782;2023-07-30T01:49:14;17.20;99.90
39847;DHT22;25517;52.422;10.782;2023-07-30T01:51:40;17.20;99.90
39847;DHT22;25517;52.422;10.782;2023-07-30T01:54:05;17.20;99.90
39847;DHT22;25517;52.422;10.782;2023-07-30T01:56:30;17.30;99.90
39847;DHT22;25517;52.422;10.782;2023-07-30T01:58:56;17.20;99.90
39847;DHT22;25517;52.422;10.782;2023-07-30T02:01:22;17.30;99.90
39847;DHT22;25517;52.422;10.782;2023-07-30T02:03:48;17.30;99.90
39847;DHT22;25517;52.422;10.782;2023-07-30T02:06:13;17.30;99.90
39847;DHT22;25517;52.422;10.782;2023-07-30T02:08:39;17.30;99.90
39847;DHT22;25517;52.422;10.782;2023-07-30T02:11:04;17.30;99.90
39847;DHT22;25517;52.422;10.782;2023-07-30T02:13:30;17.30;99.90
39847;DHT22;25517;52.422;10.782;2023-07-30T02:15:55;17.30;99.90
39847;DHT22;25517;52.422;10.782;2023-07-30T02:18:21;17.30;99.90
39847;DHT22;25517;52.422;10.782;2023-07-30T02:20:46;17.30;99.90
39847;DHT22;25517;52.422;10.782;2023-07-30T02:23:14;17.30;99.90
39847;DHT22;25517;52.422;10.782;2023-07-30T02:25:40;17.30;99.90
39847;DHT22;25517;52.422;10.782;2023-07-30T02:28:05;17.40;99.90
39847;DHT22;25517;52.422;10.782;2023-07-30T02:30:33;17.30;99.90
39847;DHT22;25517;52.422;10.782;2023-07-30T02:32:59;17.40;99.90
39847;DHT22;25517;52.422;10.782;2023-07-30T02:35:24;17.40;99.90
39847;DHT22;25517;52.422;10.782;2023-07-30T02:37:49;17.40;99.90
39847;DHT22;25517;52.422;10.782;2023-07-30T02:40:15;17.50;99.90
39847;DHT22;25517;52.422;10.782;2023-07-30T02:42:41;17.50;99.90
39847;DHT22;25517;52.422;10.782;2023-07-30T02:45:06;17.50;99.90
39847;DHT22;25517;52.422;10.782;2023-07-30T02:47:32;17.50;99.90
39847;DHT22;25517;52.422;10.782;2023-07-30T02:49:57;17.40;99.90
39847;DHT22;25517;52.422;10.782;2023-07-30T02:52:23;17.50;99.90
39847;DHT22;25517;52.422;10.782;2023-07-30T02:54:48;17.50;99.90
39847;DHT22;25517;52.422;10.782;2023-07-30T02:57:14;17.50;99.90
39847;DHT22;25517;52.422;10.782;2023-07-30T02:59:39;17.50;99.90
39847;DHT22;25517;52.422;10.782;2023-07-30T03:02:06;17.50;99.90
39847;DHT22;25517;52.422;10.782;2023-07-30T03:04:31;17.50;99.90
39847;DHT22;25517;52.422;10.782;2023-07-30T03:07:17;17.50;99.90
39847;DHT22;25517;52.422;10.782;2023-07-30T03:09:43;17.50;99.90
39847;DHT22;25517;52.422;10.782;2023-07-30T03:12:09;17.50;99.90
39847;DHT22;25517;52.422;10.782;2023-07-30T03:14:34;17.40;99.90
39847;DHT22;25517;52.422;10.782;2023-07-30T03:17:00;17.40;99.90
39847;DHT22;25517;52.422;10.782;2023-07-30T03:19:25;17.40;99.90
39847;DHT22;25517;52.422;10.782;2023-07-30T03:21:51;17.30;99.90
39847;DHT22;25517;52.422;10.782;2023-07-30T03:24:16;17.30;99.90
39847;DHT22;25517;52.422;10.782;2023-07-30T03:26:42;17.30;99.90
39847;DHT22;25517;52.422;10.782;2023-07-30T03:29:07;17.20;99.90
39847;DHT22;25517;52.422;10.782;2023-07-30T03:31:33;17.20;99.90
39847;DHT22;25517;52.422;10.782;2023-07-30T03:33:58;17.10;99.90
39847;DHT22;25517;52.422;10.782;2023-07-30T03:36:24;17.20;99.90
39847;DHT22;25517;52.422;10.782;2023-07-30T03:38:49;17.10;99.90
39847;DHT22;25517;52.422;10.782;2023-07-30T03:41:15;17.10;99.90
39847;DHT22;25517;52.422;10.782;2023-07-30T03:43:40;17.10;99.90
39847;DHT22;25517;52.422;10.782;2023-07-30T03:46:06;17.10;99.90
39847;DHT22;25517;52.422;10.782;2023-07-30T03:48:31;17.00;99.90
39847;DHT22;25517;52.422;10.782;2023-07-30T03:50:57;17.00;99.90
39847;DHT22;25517;52.422;10.782;2023-07-30T03:53:22;17.00;99.90
39847;DHT22;25517;52.422;10.782;2023-07-30T03:55:48;16.90;99.90
39847;DHT22;25517;52.422;10.782;2023-07-30T03:58:14;16.90;99.90
39847;DHT22;25517;52.422;10.782;2023-07-30T04:00:39;16.90;99.90
39847;DHT22;25517;52.422;10.782;2023-07-30T04:03:05;16.90;99.90
39847;DHT22;25517;52.422;10.782;2023-07-30T04:05:31;16.80;99.90
39847;DHT22;25517;52.422;10.782;2023-07-30T04:07:56;16.80;99.90
39847;DHT22;25517;52.422;10.782;2023-07-30T04:10:22;16.80;99.90
39847;DHT22;25517;52.422;10.782;2023-07-30T04:12:48;16.80;99.90
39847;DHT22;25517;52.422;10.782;2023-07-30T04:15:15;16.80;99.90
39847;DHT22;25517;52.422;10.782;2023-07-30T04:17:41;16.70;99.90
39847;DHT22;25517;52.422;10.782;2023-07-30T04:20:07;16.70;99.90
39847;DHT22;25517;52.422;10.782;2023-07-30T04:22:35;16.70;99.90
39847;DHT22;25517;52.422;10.782;2023-07-30T04:25:00;16.70;99.90
39847;DHT22;25517;52.422;10.782;2023-07-30T04:27:26;16.70;99.90
39847;DHT22;25517;52.422;10.782;2023-07-30T04:29:51;16.70;99.90
39847;DHT22;25517;52.422;10.782;2023-07-30T04:32:17;16.70;99.90
39847;DHT22;25517;52.422;10.782;2023-07-30T04:34:42;16.70;99.90
39847;DHT22;25517;52.422;10.782;2023-07-30T04:37:08;16.70;99.90
39847;DHT22;25517;52.422;10.782;2023-07-30T04:39:34;16.80;99.90
39847;DHT22;25517;52.422;10.782;2023-07-30T04:42:00;16.70;99.90
39847;DHT22;25517;52.422;10.782;2023-07-30T04:44:25;16.70;99.90
39847;DHT22;25517;52.422;10.782;2023-07-30T04:46:51;16.80;99.90
39847;DHT22;25517;52.422;10.782;2023-07-30T04:49:16;16.80;99.90
39847;DHT22;25517;52.422;10.782;2023-07-30T04:51:42;16.80;99.90
39847;DHT22;25517;52.422;10.782;2023-07-30T04:54:07;16.80;99.90
39847;DHT22;25517;52.422;10.782;2023-07-30T04:56:33;16.80;99.90
39847;DHT22;25517;52.422;10.782;2023-07-30T04:58:59;16.90;99.90
39847;DHT22;25517;52.422;10.782;2023-07-30T05:01:24;16.90;99.90
39847;DHT22;25517;52.422;10.782;2023-07-30T05:03:50;16.90;99.90
39847;DHT22;25517;52.422;10.782;2023-07-30T05:06:16;16.90;99.90
39847;DHT22;25517;52.422;10.782;2023-07-30T05:08:41;16.90;99.90
39847;DHT22;25517;52.422;10.782;2023-07-30T05:11:07;16.90;99.90
39847;DHT22;25517;52.422;10.782;2023-07-30T05:13:32;16.90;99.90
39847;DHT22;25517;52.422;10.782;2023-07-30T05:15:58;17.00;99.90
39847;DHT22;25517;52.422;10.782;2023-07-30T05:18:24;17.00;99.90
39847;DHT22;25517;52.422;10.782;2023-07-30T05:20:49;16.90;99.90
39847;DHT22;25517;52.422;10.782;2023-07-30T05:23:15;17.00;99.90
39847;DHT22;25517;52.422;10.782;2023-07-30T05:25:40;17.00;99.90
39847;DHT22;25517;52.422;10.782;2023-07-30T05:28:06;17.00;99.90
39847;DHT22;25517;52.422;10.782;2023-07-30T05:30:32;17.00;99.90
39847;DHT22;25517;52.422;10.782;2023-07-30T05:32:57;17.00;99.90
39847;DHT22;25517;52.422;10.782;2023-07-30T05:35:23;17.10;99.90
39847;DHT22;25517;52.422;10.782;2023-07-30T05:37:48;17.00;99.90
39847;DHT22;25517;52.422;10.782;2023-07-30T05:40:14;17.10;99.90
39847;DHT22;25517;52.422;10.782;2023-07-30T05:42:39;17.20;99.90
39847;DHT22;25517;52.422;10.782;2023-07-30T05:45:05;17.20;99.90
39847;DHT22;25517;52.422;10.782;2023-07-30T05:47:31;17.30;99.90
39847;DHT22;25517;52.422;10.782;2023-07-30T05:49:56;17.30;99.90
39847;DHT22;25517;52.422;10.782;2023-07-30T05:52:22;17.30;99.90
39847;DHT22;25517;52.422;10.782;2023-07-30T05:54:47;17.40;99.90
39847;DHT22;25517;52.422;10.782;2023-07-30T05:57:13;17.40;99.90
39847;DHT22;25517;52.422;10.782;2023-07-30T05:59:38;17.50;99.90
39847;DHT22;25517;52.422;10.782;2023-07-30T06:02:04;17.50;99.90
39847;DHT22;25517;52.422;10.782;2023-07-30T06:04:30;17.60;99.90
39847;DHT22;25517;52.422;10.782;2023-07-30T06:06:57;17.60;99.90
39847;DHT22;25517;52.422;10.782;2023-07-30T06:09:23;17.70;99.90
39847;DHT22;25517;52.422;10.782;2023-07-30T06:11:48;17.70;99.90
39847;DHT22;25517;52.422;10.782;2023-07-30T06:14:14;17.80;99.90
39847;DHT22;25517;52.422;10.782;2023-07-30T06:16:39;17.80;99.90
39847;DHT22;25517;52.422;10.782;2023-07-30T06:19:05;17.80;99.90
39847;DHT22;25517;52.422;10.782;2023-07-30T06:21:30;17.80;99.90
39847;DHT22;25517;52.422;10.782;2023-07-30T06:23:56;17.80;99.90
39847;DHT22;25517;52.422;10.782;2023-07-30T06:26:21;17.90;99.90
39847;DHT22;25517;52.422;10.782;2023-07-30T06:28:47;18.00;99.90
39847;DHT22;25517;52.422;10.782;2023-07-30T06:31:12;18.00;99.90
39847;DHT22;25517;52.422;10.782;2023-07-30T06:33:38;18.10;99.90
39847;DHT22;25517;52.422;10.782;2023-07-30T06:36:04;18.20;99.90
39847;DHT22;25517;52.422;10.782;2023-07-30T06:38:29;18.20;99.90
39847;DHT22;25517;52.422;10.782;2023-07-30T06:40:55;18.20;99.90
39847;DHT22;25517;52.422;10.782;2023-07-30T06:43:23;18.30;99.90
39847;DHT22;25517;52.422;10.782;2023-07-30T06:45:49;18.40;99.90
39847;DHT22;25517;52.422;10.782;2023-07-30T06:48:14;18.40;99.90
39847;DHT22;25517;52.422;10.782;2023-07-30T06:50:41;18.50;99.90
39847;DHT22;25517;52.422;10.782;2023-07-30T06:53:07;18.60;99.90
39847;DHT22;25517;52.422;10.782;2023-07-30T06:55:32;18.60;99.90
39847;DHT22;25517;52.422;10.782;2023-07-30T06:57:58;18.60;99.90
39847;DHT22;25517;52.422;10.782;2023-07-30T07:00:23;18.70;99.90
39847;DHT22;25517;52.422;10.782;2023-07-30T07:02:49;18.80;99.90
39847;DHT22;25517;52.422;10.782;2023-07-30T07:05:15;18.90;99.90
39847;DHT22;25517;52.422;10.782;2023-07-30T07:07:40;19.00;99.90
39847;DHT22;25517;52.422;10.782;2023-07-30T07:10:06;18.90;99.90
39847;DHT22;25517;52.422;10.782;2023-07-30T07:12:32;19.00;99.90
39847;DHT22;25517;52.422;10.782;2023-07-30T07:14:57;19.10;99.90
39847;DHT22;25517;52.422;10.782;2023-07-30T07:17:24;19.10;99.90
39847;DHT22;25517;52.422;10.782;2023-07-30T07:19:49;19.10;99.90
39847;DHT22;25517;52.422;10.782;2023-07-30T07:22:15;19.20;99.90
39847;DHT22;25517;52.422;10.782;2023-07-30T07:24:43;19.20;99.90
39847;DHT22;25517;52.422;10.782;2023-07-30T07:27:09;19.30;99.90
39847;DHT22;25517;52.422;10.782;2023-07-30T07:29:35;19.30;99.90
39847;DHT22;25517;52.422;10.782;2023-07-30T07:32:00;19.40;99.90
39847;DHT22;25517;52.422;10.782;2023-07-30T07:34:26;19.50;99.90
39847;DHT22;25517;52.422;10.782;2023-07-30T07:36:51;19.60;99.90
39847;DHT22;25517;52.422;10.782;2023-07-30T07:39:17;19.70;99.90
39847;DHT22;25517;52.422;10.782;2023-07-30T07:41:43;19.80;99.90
39847;DHT22;25517;52.422;10.782;2023-07-30T07:44:09;19.90;99.90
39847;DHT22;25517;52.422;10.782;2023-07-30T07:46:34;20.10;99.90
39847;DHT22;25517;52.422;10.782;2023-07-30T07:49:00;20.20;99.90
39847;DHT22;25517;52.422;10.782;2023-07-30T07:51:25;20.30;99.90
39847;DHT22;25517;52.422;10.782;2023-07-30T07:53:51;20.40;99.90
39847;DHT22;25517;52.422;10.782;2023-07-30T07:56:16;20.40;99.90
39847;DHT22;25517;52.422;10.782;2023-07-30T07:58:42;20.50;99.90
39847;DHT22;25517;52.422;10.782;2023-07-30T08:01:08;20.60;99.90
39847;DHT22;25517;52.422;10.782;2023-07-30T08:03:34;20.60;99.90
39847;DHT22;25517;52.422;10.782;2023-07-30T08:05:59;20.60;99.90
39847;DHT22;25517;52.422;10.782;2023-07-30T08:08:26;20.70;99.90
39847;DHT22;25517;52.422;10.782;2023-07-30T08:10:51;21.00;99.90
39847;DHT22;25517;52.422;10.782;2023-07-30T08:13:17;21.30;99.90
39847;DHT22;25517;52.422;10.782;2023-07-30T08:15:42;21.60;99.90
39847;DHT22;25517;52.422;10.782;2023-07-30T08:18:08;21.60;99.60
39847;DHT22;25517;52.422;10.782;2023-07-30T08:20:33;21.60;99.40
39847;DHT22;25517;52.422;10.782;2023-07-30T08:22:59;21.80;99.20
39847;DHT22;25517;52.422;10.782;2023-07-30T08:25:26;21.80;98.40
39847;DHT22;25517;52.422;10.782;2023-07-30T08:27:51;22.00;98.50
39847;DHT22;25517;52.422;10.782;2023-07-30T08:30:17;21.90;97.40
39847;DHT22;25517;52.422;10.782;2023-07-30T08:32:42;22.10;97.50
39847;DHT22;25517;52.422;10.782;2023-07-30T08:35:09;22.50;96.70
39847;DHT22;25517;52.422;10.782;2023-07-30T08:37:34;23.00;96.90
39847;DHT22;25517;52.422;10.782;2023-07-30T08:40:00;23.70;96.10
39847;DHT22;25517;52.422;10.782;2023-07-30T08:42:25;24.30;94.50
39847;DHT22;25517;52.422;10.782;2023-07-30T08:44:51;24.90;92.80
39847;DHT22;25517;52.422;10.782;2023-07-30T08:47:17;25.50;91.90
39847;DHT22;25517;52.422;10.782;2023-07-30T08:49:42;25.50;91.00
39847;DHT22;25517;52.422;10.782;2023-07-30T08:52:09;26.10;89.20
39847;DHT22;25517;52.422;10.782;2023-07-30T08:54:36;26.70;87.80
39847;DHT22;25517;52.422;10.782;2023-07-30T08:57:02;27.30;84.60
39847;DHT22;25517;52.422;10.782;2023-07-30T08:59:33;27.80;82.00
39847;DHT22;25517;52.422;10.782;2023-07-30T09:02:01;27.40;78.60
39847;DHT22;25517;52.422;10.782;2023-07-30T09:04:29;27.70;79.10
39847;DHT22;25517;52.422;10.782;2023-07-30T09:06:55;28.50;78.00
39847;DHT22;25517;52.422;10.782;2023-07-30T09:09:21;28.50;77.70
39847;DHT22;25517;52.422;10.782;2023-07-30T09:11:51;29.20;76.30
39847;DHT22;25517;52.422;10.782;2023-07-30T09:14:19;29.70;72.80
39847;DHT22;25517;52.422;10.782;2023-07-30T09:16:46;30.00;73.80
39847;DHT22;25517;52.422;10.782;2023-07-30T09:19:19;30.50;73.60
39847;DHT22;25517;52.422;10.782;2023-07-30T09:21:44;30.30;70.00
39847;DHT22;25517;52.422;10.782;2023-07-30T09:24:10;30.20;69.70
39847;DHT22;25517;52.422;10.782;2023-07-30T09:26:42;30.30;67.70
39847;DHT22;25517;52.422;10.782;2023-07-30T09:29:09;29.80;69.70
39847;DHT22;25517;52.422;10.782;2023-07-30T09:31:52;29.80;69.70
39847;DHT22;25517;52.422;10.782;2023-07-30T09:34:20;30.30;69.10
39847;DHT22;25517;52.422;10.782;2023-07-30T09:36:47;29.90;67.30
39847;DHT22;25517;52.422;10.782;2023-07-30T09:39:20;30.10;65.70
39847;DHT22;25517;52.422;10.782;2023-07-30T09:41:46;30.10;68.60
39847;DHT22;25517;52.422;10.782;2023-07-30T09:44:13;30.10;66.10
39847;DHT22;25517;52.422;10.782;2023-07-30T09:46:48;30.20;67.80
39847;DHT22;25517;52.422;10.782;2023-07-30T09:49:14;30.50;67.00
39847;DHT22;25517;52.422;10.782;2023-07-30T09:51:40;30.30;65.40
39847;DHT22;25517;52.422;10.782;2023-07-30T09:54:11;30.30;65.80
39847;DHT22;25517;52.422;10.782;2023-07-30T09:56:38;30.00;64.40
39847;DHT22;25517;52.422;10.782;2023-07-30T09:59:05;30.00;67.50
39847;DHT22;25517;52.422;10.782;2023-07-30T10:01:31;30.30;66.40
39847;DHT22;25517;52.422;10.782;2023-07-30T10:03:58;30.50;65.50
39847;DHT22;25517;52.422;10.782;2023-07-30T10:06:26;30.10;66.70
39847;DHT22;25517;52.422;10.782;2023-07-30T10:08:53;29.90;67.70
39847;DHT22;25517;52.422;10.782;2023-07-30T10:11:20;29.20;66.20
39847;DHT22;25517;52.422;10.782;2023-07-30T10:13:47;28.90;66.40
39847;DHT22;25517;52.422;10.782;2023-07-30T10:16:13;29.00;68.90
39847;DHT22;25517;52.422;10.782;2023-07-30T10:18:43;28.90;68.10
39847;DHT22;25517;52.422;10.782;2023-07-30T10:21:10;28.00;69.40
39847;DHT22;25517;52.422;10.782;2023-07-30T10:23:36;27.50;70.40
39847;DHT22;25517;52.422;10.782;2023-07-30T10:26:10;27.10;71.50
39847;DHT22;25517;52.422;10.782;2023-07-30T10:28:36;26.90;73.70
39847;DHT22;25517;52.422;10.782;2023-07-30T10:31:06;26.90;73.40
39847;DHT22;25517;52.422;10.782;2023-07-30T10:34:01;26.60;71.80
39847;DHT22;25517;52.422;10.782;2023-07-30T10:36:44;26.60;72.80
39847;DHT22;25517;52.422;10.782;2023-07-30T10:39:21;26.30;72.70
39847;DHT22;25517;52.422;10.782;2023-07-30T10:41:54;26.00;75.00
39847;DHT22;25517;52.422;10.782;2023-07-30T10:44:23;25.60;74.60
39847;DHT22;25517;52.422;10.782;2023-07-30T10:46:50;25.30;75.80
39847;DHT22;25517;52.422;10.782;2023-07-30T10:49:16;24.80;78.30
39847;DHT22;25517;52.422;10.782;2023-07-30T10:51:42;24.70;78.00
39847;DHT22;25517;52.422;10.782;2023-07-30T10:54:07;24.70;78.50
39847;DHT22;25517;52.422;10.782;2023-07-30T10:56:38;24.60;78.00
39847;DHT22;25517;52.422;10.782;2023-07-30T10:59:04;24.30;78.00
39847;DHT22;25517;52.422;10.782;2023-07-30T11:01:37;23.90;79.70
39847;DHT22;25517;52.422;10.782;2023-07-30T11:04:20;23.40;80.60
39847;DHT22;25517;52.422;10.782;2023-07-30T11:06:50;23.20;82.00
39847;DHT22;25517;52.422;10.782;2023-07-30T11:09:19;23.00;83.20
39847;DHT22;25517;52.422;10.782;2023-07-30T11:11:49;22.70;84.10
39847;DHT22;25517;52.422;10.782;2023-07-30T11:14:23;22.70;84.20
39847;DHT22;25517;52.422;10.782;2023-07-30T11:16:52;22.40;85.20
39847;DHT22;25517;52.422;10.782;2023-07-30T11:19:18;22.30;86.80
39847;DHT22;25517;52.422;10.782;2023-07-30T11:21:45;22.30;85.50
39847;DHT22;25517;52.422;10.782;2023-07-30T11:24:11;22.40;86.00
39847;DHT22;25517;52.422;10.782;2023-07-30T11:26:36;22.30;84.90
39847;DHT22;25517;52.422;10.782;2023-07-30T11:29:17;22.40;85.60
39847;DHT22;25517;52.422;10.782;2023-07-30T11:31:44;22.40;86.10
39847;DHT22;25517;52.422;10.782;2023-07-30T11:34:10;22.40;85.60
39847;DHT22;25517;52.422;10.782;2023-07-30T11:36:36;22.30;86.20
39847;DHT22;25517;52.422;10.782;2023-07-30T11:39:03;22.20;86.40
39847;DHT22;25517;52.422;10.782;2023-07-30T11:41:29;22.30;88.50
39847;DHT22;25517;52.422;10.782;2023-07-30T11:43:55;22.30;88.40
39847;DHT22;25517;52.422;10.782;2023-07-30T11:46:21;22.40;87.80
39847;DHT22;25517;52.422;10.782;2023-07-30T11:48:48;22.40;87.40
39847;DHT22;25517;52.422;10.782;2023-07-30T11:56:21;22.70;87.30
39847;DHT22;25517;52.422;10.782;2023-07-30T11:58:48;22.80;87.10
39847;DHT22;25517;52.422;10.782;2023-07-30T12:01:15;22.90;88.00
39847;DHT22;25517;52.422;10.782;2023-07-30T12:03:41;22.70;86.60
39847;DHT22;25517;52.422;10.782;2023-07-30T12:06:08;22.50;86.70
39847;DHT22;25517;52.422;10.782;2023-07-30T12:08:35;22.40;88.30
39847;DHT22;25517;52.422;10.782;2023-07-30T12:11:05;22.50;88.90
39847;DHT22;25517;52.422;10.782;2023-07-30T12:13:31;23.00;86.90
39847;DHT22;25517;52.422;10.782;2023-07-30T12:15:57;23.20;87.10
39847;DHT22;25517;52.422;10.782;2023-07-30T12:18:25;23.50;87.80
39847;DHT22;25517;52.422;10.782;2023-07-30T12:20:51;23.40;85.60
39847;DHT22;25517;52.422;10.782;2023-07-30T12:23:17;23.40;88.00
39847;DHT22;25517;52.422;10.782;2023-07-30T12:25:45;23.40;86.90
39847;DHT22;25517;52.422;10.782;2023-07-30T12:28:10;23.40;85.80
39847;DHT22;25517;52.422;10.782;2023-07-30T12:30:36;23.30;85.80
39847;DHT22;25517;52.422;10.782;2023-07-30T12:33:05;23.10;86.10
39847;DHT22;25517;52.422;10.782;2023-07-30T12:35:51;23.10;87.20
39847;DHT22;25517;52.422;10.782;2023-07-30T12:38:16;22.90;88.60
39847;DHT22;25517;52.422;10.782;2023-07-30T12:40:42;22.70;87.70
39847;DHT22;25517;52.422;10.782;2023-07-30T12:43:07;23.00;89.70
39847;DHT22;25517;52.422;10.782;2023-07-30T12:45:34;23.10;86.40
39847;DHT22;25517;52.422;10.782;2023-07-30T12:48:00;22.90;87.70
39847;DHT22;25517;52.422;10.782;2023-07-30T12:50:26;23.00;87.70
39847;DHT22;25517;52.422;10.782;2023-07-30T12:52:52;23.10;87.70
39847;DHT22;25517;52.422;10.782;2023-07-30T12:55:18;23.20;87.10
39847;DHT22;25517;52.422;10.782;2023-07-30T12:57:43;23.10;88.30
39847;DHT22;25517;52.422;10.782;2023-07-30T13:02:53;22.90;88.20
39847;DHT22;25517;52.422;10.782;2023-07-30T13:05:21;22.70;88.90
39847;DHT22;25517;52.422;10.782;2023-07-30T13:07:47;22.70;88.30
39847;DHT22;25517;52.422;10.782;2023-07-30T13:10:12;22.70;89.30
39847;DHT22;25517;52.422;10.782;2023-07-30T13:12:38;22.70;89.20
39847;DHT22;25517;52.422;10.782;2023-07-30T13:15:04;23.00;90.00
39847;DHT22;25517;52.422;10.782;2023-07-30T13:17:29;23.50;90.10
39847;DHT22;25517;52.422;10.782;2023-07-30T13:19:55;23.90;87.20
39847;DHT22;25517;52.422;10.782;2023-07-30T13:22:20;24.30;86.80
39847;DHT22;25517;52.422;10.782;2023-07-30T13:24:46;24.40;83.90
39847;DHT22;25517;52.422;10.782;2023-07-30T13:27:11;24.00;85.20
39847;DHT22;25517;52.422;10.782;2023-07-30T13:29:37;24.20;86.40
39847;DHT22;25517;52.422;10.782;2023-07-30T13:32:03;24.60;85.80
39847;DHT22;25517;52.422;10.782;2023-07-30T13:34:28;24.60;82.90
39847;DHT22;25517;52.422;10.782;2023-07-30T13:36:54;24.60;82.90
39847;DHT22;25517;52.422;10.782;2023-07-30T13:39:19;24.80;82.70
39847;DHT22;25517;52.422;10.782;2023-07-30T13:41:45;25.00;85.80
39847;DHT22;25517;52.422;10.782;2023-07-30T13:44:10;25.10;82.80
39847;DHT22;25517;52.422;10.782;2023-07-30T13:46:37;25.10;82.20
39847;DHT22;25517;52.422;10.782;2023-07-30T13:49:03;25.00;86.00
39847;DHT22;25517;52.422;10.782;2023-07-30T13:51:29;24.70;81.60
39847;DHT22;25517;52.422;10.782;2023-07-30T13:54:01;24.70;83.90
39847;DHT22;25517;52.422;10.782;2023-07-30T13:56:27;24.70;80.10
39847;DHT22;25517;52.422;10.782;2023-07-30T13:58:53;24.40;80.50
39847;DHT22;25517;52.422;10.782;2023-07-30T14:01:19;24.50;81.30
39847;DHT22;25517;52.422;10.782;2023-07-30T14:03:44;24.60;81.00
39847;DHT22;25517;52.422;10.782;2023-07-30T14:06:10;24.50;80.60
39847;DHT22;25517;52.422;10.782;2023-07-30T14:08:36;24.50;81.30
39847;DHT22;25517;52.422;10.782;2023-07-30T14:11:02;24.30;83.00
39847;DHT22;25517;52.422;10.782;2023-07-30T14:13:27;24.60;82.90
39847;DHT22;25517;52.422;10.782;2023-07-30T14:15:53;24.90;79.30
39847;DHT22;25517;52.422;10.782;2023-07-30T14:18:19;24.90;81.70
39847;DHT22;25517;52.422;10.782;2023-07-30T14:20:44;25.00;81.40
39847;DHT22;25517;52.422;10.782;2023-07-30T14:23:10;25.10;78.80
39847;DHT22;25517;52.422;10.782;2023-07-30T14:25:37;25.20;81.20
39847;DHT22;25517;52.422;10.782;2023-07-30T14:28:03;24.80;77.40
39847;DHT22;25517;52.422;10.782;2023-07-30T14:30:28;24.80;78.20
39847;DHT22;25517;52.422;10.782;2023-07-30T14:32:54;24.70;77.90
39847;DHT22;25517;52.422;10.782;2023-07-30T14:35:20;24.80;77.30
39847;DHT22;25517;52.422;10.782;2023-07-30T14:37:45;24.90;79.20
39847;DHT22;25517;52.422;10.782;2023-07-30T14:40:11;24.60;78.00
39847;DHT22;25517;52.422;10.782;2023-07-30T14:42:36;24.70;79.10
39847;DHT22;25517;52.422;10.782;2023-07-30T14:45:02;24.70;78.20
39847;DHT22;25517;52.422;10.782;2023-07-30T14:47:28;24.80;79.20
39847;DHT22;25517;52.422;10.782;2023-07-30T14:49:53;24.90;79.20
39847;DHT22;25517;52.422;10.782;2023-07-30T14:52:19;24.80;78.70
39847;DHT22;25517;52.422;10.782;2023-07-30T14:54:45;25.00;76.30
39847;DHT22;25517;52.422;10.782;2023-07-30T14:57:11;25.10;77.50
39847;DHT22;25517;52.422;10.782;2023-07-30T14:59:37;25.10;76.30
39847;DHT22;25517;52.422;10.782;2023-07-30T15:02:02;25.10;76.70
39847;DHT22;25517;52.422;10.782;2023-07-30T15:04:28;25.10;77.30
39847;DHT22;25517;52.422;10.782;2023-07-30T15:06:55;25.00;77.30
39847;DHT22;25517;52.422;10.782;2023-07-30T15:09:20;24.80;75.40
39847;DHT22;25517;52.422;10.782;2023-07-30T15:11:46;24.60;77.90
39847;DHT22;25517;52.422;10.782;2023-07-30T15:14:12;24.20;77.70
39847;DHT22;25517;52.422;10.782;2023-07-30T15:16:37;24.40;80.20
39847;DHT22;25517;52.422;10.782;2023-07-30T15:19:02;24.20;79.30